x

8770822 - Texas Point, Tx (txpt2) Weather Station

3:54am - Mon 2nd May 2016 All times are CDT. -5 hours from GMT.

  • Wind
    20mph, 24mph gusts
  • Air Temp 74°f
  • Sea Pressure 1011.6mb
  • 8770822 - Texas Point, Tx
  • 8770822 - Texas Point, Tx

More Historic Weather Station data

Upgrade to MSW Pro to gain access to the past 30 days of data for over 8000 Wavebouys and Weather Stations around the globe.

Join Pro

Comparision Forecast

View Surf forecast
   
Mon 05/02 3:54am 20 24 mph 1011.6mb 74f
3:48am 22 24 mph 1012mb 74f
3:42am 16 20 mph 1011.8mb 75f
3:36am 15 17 mph 1012mb 75f
3:30am 14 17 mph 1012.5mb 75f
3:24am 16 20 mph 1012.3mb 75f
3:18am 18 20 mph 1012mb 75f
3:12am 14 16 mph 1012.2mb 75f
3:06am 11 14 mph 1012.6mb 75f
3:00am 14 16 mph 1012.6mb 75f
2:54am 15 16 mph 1012.2mb 74f
2:48am 15
mph
1012.5mb 74f
2:42am 14 15 mph 1012.9mb 74f
2:36am 14 16 mph 1012.9mb 74f
2:30am 15 18 mph 1012.5mb 74f
2:24am 15 18 mph 1012.9mb 74f
2:18am 15 18 mph 1012.9mb 74f
2:12am 16 20 mph 1012.5mb 74f
2:06am 15 17 mph 1012.9mb 74f
2:00am 15 17 mph 1012.7mb 74f
1:54am 15 17 mph 1012.7mb 74f
1:48am 15 17 mph 1012.8mb -
1:42am 14 16 mph 1013.3mb -
1:36am 16 17 mph 1013.2mb -
1:30am 14 17 mph 1012.9mb 74f
1:24am 15 18 mph 1013mb 74f
1:18am 15 18 mph 1013.1mb 74f
1:12am 15 20 mph 1012.9mb 74f
1:06am 16 18 mph 1012.8mb 74f
1:00am 17 20 mph 1013mb 74f
12:54am 16 17 mph 1013.3mb 74f
12:48am 16 21 mph - -
12:42am 20 22 mph - -
12:36am 20 22 mph - -
12:30am 18 21 mph 1013.7mb 74f
12:24am 17 20 mph 1013.6mb 74f
12:18am 16 20 mph 1013.5mb 74f
12:12am 17 20 mph 1013.5mb 74f
12:06am 16 20 mph 1013.4mb 74f
12:00am 18 21 mph 1013.4mb 74f
Sun 05/01 11:54pm 17 22 mph 1013.4mb 74f
11:48pm 21 22 mph 1013.5mb 74f
11:42pm 20 22 mph 1013.4mb 74f
11:36pm 20 22 mph 1013.4mb 74f
11:30pm 21 22 mph 1013.3mb 74f
11:24pm 21 23 mph 1013.3mb 74f
11:18pm 20 22 mph 1013.2mb 74f
11:12pm 20 24 mph 1013.3mb 74f
11:06pm 22 24 mph 1013.2mb 73f
11:00pm 23 25 mph 1013.2mb 73f
10:54pm 21 23 mph 1013mb 74f
10:48pm 22 24 mph 1013mb 73f
10:42pm 18 22 mph 1012.9mb 74f
10:36pm 23 25 mph 1012.8mb 74f
10:30pm 22 24 mph 1013mb 74f
10:24pm 17 20 mph 1013mb 74f
10:18pm 17 22 mph 1013mb 74f
10:12pm 18 22 mph 1013mb 74f
10:06pm 21 24 mph 1012.8mb 74f
10:00pm  -  mph 1012.6mb 74f
9:54pm  -  mph 1012.4mb 74f
9:48pm  -  mph 1012.2mb -
9:42pm  -  mph 1012.1mb -
9:36pm  -  mph 1012mb -
9:30pm  -  mph 1011.9mb -
9:24pm  -  mph 1012.1mb -
9:18pm  -  mph 1011.9mb -
9:12pm  -  mph 1011.8mb -
9:06pm  -  mph 1011.7mb -
9:00pm 21 23 mph 1011.7mb 74f
8:54pm 20 21 mph 1011.7mb 74f
8:48pm  -  mph 1011.6mb -
8:42pm  -  mph 1011.8mb -
8:36pm  -  mph 1011.6mb -
8:30pm  -  mph 1011.6mb -
8:24pm  -  mph 1011.6mb -
8:18pm 16 17 mph 1011.5mb 73f
8:12pm 16 17 mph 1011.6mb 73f
8:06pm 15 17 mph 1011.3mb 73f
8:00pm  -  mph 1011.3mb 74f
7:54pm  -  mph 1011.3mb 74f
7:48pm  -  mph 1011.3mb -
7:42pm  -  mph 1011.3mb -
7:36pm  -  mph 1011.3mb -
7:30pm 13 15 mph 1011.5mb -
7:24pm 14 18 mph 1011.3mb -
7:18pm 17 20 mph 1011.2mb -
7:12pm 18 21 mph 1011.2mb -
7:06pm 17 22 mph 1011.1mb -
7:00pm 17 21 mph 1011mb -
6:48pm  -  mph 1010.7mb -
6:42pm  -  mph 1010.8mb -
6:36pm  -  mph 1011.3mb -
6:30pm 18 22 mph 1011.3mb 73f
6:24pm 21 24 mph 1011.2mb 73f
6:18pm 22 24 mph 1011.2mb -
6:12pm 21 25 mph 1011.3mb -
6:06pm 23 26 mph 1010.9mb -
6:00pm  -  mph 1011.1mb 73f
5:54pm  -  mph 1011.1mb 73f
5:48pm  -  mph 1011mb -
5:42pm  -  mph 1011mb -
5:36pm  -  mph 1011mb -
5:30pm  -  mph 1011mb 73f
5:24pm  -  mph 1010.8mb 73f
5:18pm 20 22 mph 1010.9mb -
5:12pm 17 20 mph 1011mb -
5:06pm 17 20 mph 1010.8mb -
5:00pm 18 21 mph 1010.8mb 73f
4:54pm 18 22 mph 1010.9mb 72f
4:48pm  -  mph 1010.9mb -
4:42pm  -  mph 1010.8mb -
4:36pm  -  mph 1010.8mb -
4:30pm 20 22 mph 1010.9mb 73f
4:24pm 18 22 mph 1011.1mb 73f
4:18pm 17 20 mph 1011.1mb 73f
4:12pm 17 21 mph 1011.1mb 73f
4:06pm 15 20 mph 1011mb 73f
4:00pm 17 20 mph 1010.8mb 73f
3:54pm 18 22 mph 1010.6mb 73f
3:48pm 21 23 mph 1010.6mb 73f
3:42pm 21 23 mph 1010.7mb 73f
3:36pm 18 21 mph 1010.8mb 73f
3:30pm 18 21 mph 1010.9mb 74f
3:24pm 21 22 mph 1011.1mb 73f
3:18pm 21 23 mph 1011.1mb 73f
3:12pm 21 23 mph 1010.9mb 73f
3:06pm 21 24 mph 1011mb 73f
3:00pm 22 23 mph 1011.1mb 73f
2:54pm 22 25 mph 1011.4mb 73f
2:48pm 22 24 mph 1011.4mb 72f
2:42pm 20 24 mph 1011.4mb 73f
2:36pm 21 24 mph 1011.6mb 72f
2:30pm 22 24 mph 1011.6mb 72f
2:24pm 22 24 mph 1011.6mb 72f
2:18pm 23 25 mph 1011.6mb 72f
2:12pm 22 25 mph 1011.5mb 72f
2:06pm 23 25 mph 1011.6mb 72f
2:00pm 22 25 mph 1011.5mb 72f
1:54pm 22 23 mph 1011.6mb 72f
1:48pm 21 25 mph 1011.5mb 72f
1:42pm 21 24 mph 1011.5mb 72f
1:36pm 21 23 mph 1011.5mb 72f
1:30pm 17 21 mph 1011.7mb 72f
1:24pm 18 22 mph 1011.8mb 72f
1:18pm 21 23 mph 1011.8mb 72f
1:12pm 16 18 mph 1011.8mb 73f
1:06pm 16 17 mph 1011.6mb 73f
1:00pm 15 17 mph 1011.5mb 73f
12:54pm 11 15 mph 1011.4mb 73f
12:48pm 13 15 mph 1011.4mb 72f
12:42pm 14 16 mph 1011.5mb 73f
12:36pm 15 16 mph 1011.4mb 72f
12:30pm 13 16 mph 1011.5mb 72f
12:24pm 14 15 mph 1011.6mb 71f
12:18pm 14 16 mph 1011.6mb 71f
12:12pm 16 18 mph 1011.7mb 71f
12:06pm 16 18 mph 1011.7mb 71f
12:00pm 13 17 mph 1011.8mb 71f
11:54am 15 18 mph 1011.9mb 71f
11:48am 16 20 mph 1012mb 71f
11:42am 14 15 mph 1012mb 72f
11:36am 11 18 mph 1012mb 72f
11:30am 16 18 mph 1011.9mb 72f
11:24am 11 14 mph 1011.9mb 73f
11:18am 13 15 mph 1011.8mb 73f
11:12am 8 10 mph 1011.8mb 74f
11:06am 9 13 mph 1011.8mb 74f
11:00am 8 9 mph 1011.7mb 75f
10:54am 5 8 mph 1011.6mb 75f
10:48am 8 10 mph 1011.6mb 74f
10:42am 8 11 mph 1011.5mb 77f
10:36am 10 11 mph 1011.4mb 77f
10:30am 9 10 mph 1011.3mb 77f
10:24am 8 10 mph 1011.3mb 77f
10:18am 9 10 mph 1011.3mb 77f
10:12am 8 10 mph 1011.3mb 77f
10:06am 9 11 mph 1011.2mb 77f
10:00am 9 10 mph 1011.1mb 78f
9:54am 10 14 mph 1011mb 78f
9:48am 10 14 mph 1010.8mb -
9:42am 14 15 mph 1010.7mb -
9:36am 13 16 mph 1010.6mb -
9:30am 14 16 mph 1010.6mb 78f
9:24am 15 16 mph 1010.5mb 77f
9:18am 14 15 mph 1010.5mb 77f
9:12am 13 15 mph 1010.5mb 77f
9:06am 13 15 mph 1010.5mb 77f
9:00am 13 16 mph 1010.4mb 77f
8:54am 15 17 mph 1010.4mb 77f
8:48am 15 18 mph 1010.2mb 77f
8:42am 16 20 mph 1010.1mb 77f
8:36am 15 17 mph 1010mb 77f
8:30am 14 17 mph 1009.9mb 77f
8:24am 15 18 mph 1009.8mb 77f
8:18am 16 18 mph 1009.8mb 76f
8:12am 16 22 mph 1009.8mb 76f
8:06am 15 22 mph 1009.8mb 76f
8:00am 15 20 mph 1009.8mb 76f
7:54am 14 20 mph 1009.8mb 76f
7:48am 15 20 mph 1009.6mb 76f
7:42am 15 18 mph 1009.5mb 76f
7:36am 16 17 mph 1009.5mb 76f
7:30am 16 20 mph 1009.5mb 76f
7:24am 13 17 mph 1009.4mb 76f
7:18am 14 17 mph 1009.3mb 76f
7:12am 16 20 mph 1009.1mb 76f
7:06am 16 20 mph 1008.9mb 76f
7:00am 16 22 mph 1008.6mb 76f
6:54am 18 23 mph 1008.4mb 76f
6:48am 18 24 mph 1008.3mb 77f
6:42am 21 25 mph 1008.2mb 76f
6:36am 22 25 mph 1008.2mb 76f
6:30am 17 22 mph 1008.2mb 76f
6:24am 21 25 mph 1008.2mb 76f
6:18am 20 23 mph 1008.1mb 76f
6:12am 18 24 mph 1008mb 76f
6:06am 18 22 mph 1008.1mb 76f
6:00am 18 23 mph 1008.1mb 76f
5:54am 18 23 mph 1008.2mb 76f
5:48am 18 23 mph 1008.3mb 76f
5:42am 20 23 mph 1008.2mb 76f
5:36am 18 23 mph 1008.3mb 76f
5:30am 18 22 mph 1008.2mb 76f
5:24am 17 21 mph 1008.3mb 76f
5:18am 18 22 mph 1008.4mb 76f
5:12am 18 22 mph 1008.4mb 76f
5:06am 20 24 mph 1008.2mb 76f
5:00am 20 23 mph 1008.3mb 76f
4:54am 21 25 mph 1008.3mb 76f
4:48am 20 25 mph 1008.3mb 76f
4:42am 22 26 mph 1008.2mb 76f
4:36am 23 26 mph 1008.2mb 76f
4:30am 23 28 mph 1008.2mb 76f
4:24am 20 24 mph 1008.2mb 76f
4:18am 18 24 mph 1008.2mb 76f
4:12am 18 24 mph 1008.2mb 76f
4:06am 20 24 mph 1008mb 76f
4:00am 22 24 mph 1008mb 76f
3:54am 21 24 mph 1008.6mb 76f
3:48am 23 25 mph 1008mb 76f
3:42am 21 24 mph 1008.2mb 76f
3:36am 20 24 mph 1008.4mb 76f
3:30am 21 23 mph 1008.3mb 76f
3:24am 21 23 mph 1008.2mb 76f
3:18am 20 23 mph 1008.4mb 76f
3:12am 17 21 mph 1008.2mb 76f
3:06am 17 21 mph 1008.5mb 76f
3:00am 21 22 mph 1008.5mb 76f
2:54am 18 21 mph 1008.6mb 76f
2:48am 17 20 mph 1008.7mb 77f
2:42am 16 21 mph 1008.7mb 77f
2:36am 18 22 mph 1008.8mb 76f
2:30am 18 20 mph 1008.8mb 76f
2:24am 16 18 mph 1008.9mb 76f
2:18am 16 20 mph 1009mb 77f
2:12am 18 21 mph 1009mb 76f
2:06am 18 22 mph 1008.9mb 77f
2:00am 18 20 mph 1008.9mb 76f
1:54am 18 21 mph 1009mb 76f
1:48am 17 21 mph 1009.1mb 77f
1:42am 17 20 mph 1009.1mb 76f
1:36am 16 18 mph 1009.1mb 76f
1:30am 16 18 mph 1009.1mb 76f
1:24am 16 20 mph 1009.2mb 77f
1:18am 17 20 mph 1009.2mb 77f
1:12am 16 18 mph 1009.2mb 77f
1:06am 16 18 mph 1009.2mb 77f
1:00am 17 18 mph 1009.3mb 77f
12:54am 16 18 mph 1009.3mb 77f
12:48am  -  mph 1009.3mb 77f
12:42am  -  mph 1009.3mb 77f
12:36am  -  mph 1009.3mb 77f
12:30am 15 17 mph 1009.3mb 77f
12:24am 15 17 mph 1009.3mb 77f
12:18am 14 17 mph 1009.3mb 77f
12:12am 14 17 mph 1009.4mb 77f
12:06am 14 17 mph 1009.4mb 77f
12:00am 14 16 mph 1009.5mb 77f
Sat 04/30 11:54pm 14 17 mph 1009.5mb 77f
11:48pm 14 17 mph 1009.5mb 77f
11:42pm 16 18 mph 1009.5mb 77f
11:36pm 15 17 mph 1009.4mb 77f
11:30pm 14 16 mph 1009.4mb 77f
11:24pm 14 16 mph 1009.3mb 77f
11:18pm 15 17 mph 1009.3mb 77f
11:12pm 16 18 mph 1009.3mb 77f
11:06pm 17 20 mph 1009.3mb 77f
11:00pm 16 20 mph 1009.3mb 77f
10:54pm 16 18 mph 1009.3mb 77f
10:48pm 16 20 mph 1009.3mb 77f
10:42pm 16 18 mph 1009.2mb 77f
10:36pm 16 18 mph 1009.2mb 77f
10:30pm 16 18 mph 1009.2mb 77f
10:24pm 14 17 mph 1009.1mb 77f
10:18pm 15 16 mph 1009.2mb 77f
10:12pm 15 17 mph 1009.1mb 77f
10:06pm 16 17 mph 1009mb 77f
10:00pm 14 17 mph 1009mb 77f
9:54pm 14 17 mph 1008.9mb 77f
9:48pm  -  mph 1008.7mb -
9:42pm  -  mph 1008.5mb -
9:36pm  -  mph 1008.5mb -
9:30pm  -  mph 1008.6mb -
9:24pm  -  mph 1008.4mb -
9:18pm  -  mph 1008.3mb 77f
9:12pm  -  mph 1008.2mb 76f
9:06pm  -  mph 1008.2mb 76f
9:00pm 16 18 mph 1008.2mb 76f
8:54pm 16 18 mph 1008.1mb 76f
8:48pm 17 20 mph 1007.9mb -
8:42pm 17 18 mph 1007.8mb -
8:36pm 16 17 mph 1007.7mb -
8:30pm  -  mph 1007.6mb -
8:24pm  -  mph 1007.6mb -
8:18pm 15 17 mph 1007.5mb -
8:12pm 15 17 mph 1007.4mb -
8:06pm 17 18 mph 1007.3mb -
8:00pm 17 18 mph 1007.2mb 76f
7:54pm 16 18 mph 1007.2mb 76f
7:48pm 16 17 mph 1007mb -
7:42pm 15 17 mph 1006.9mb -
7:36pm 16 20 mph 1006.8mb -
7:30pm  -  mph 1006.7mb 76f
7:24pm  -  mph 1006.7mb 76f
7:18pm 17 20 mph 1006.7mb -
7:12pm 20 22 mph 1006.7mb -
7:06pm 18 21 mph 1006.6mb -
7:00pm  -  mph 1006.7mb 77f
6:54pm  -  mph 1006.6mb 77f
6:48pm  -  mph 1006.5mb -
6:42pm  -  mph 1006.5mb -
6:36pm  -  mph 1006.4mb -
6:00pm  -  mph - 77f
5:54pm  -  mph - 77f
5:48pm  -  mph - 77f
5:42pm  -  mph - 77f
5:36pm  -  mph - 77f
5:30pm 15 16 mph 1005.9mb 77f
5:24pm 13 14 mph 1005.9mb 78f
5:18pm 11 14 mph 1005.9mb -
5:12pm 13 14 mph 1005.8mb -
5:06pm 10 11 mph 1005.9mb -
5:00pm  -  mph 1005.9mb 78f
4:54pm  -  mph 1005.8mb 78f
4:48pm  -  mph 1005.9mb -
4:42pm  -  mph 1005.9mb -
4:36pm  -  mph 1005.8mb -
4:30pm 11 13 mph 1005.8mb 78f
4:24pm 10 11 mph 1005.8mb 78f
4:18pm 10 11 mph 1005.8mb 78f
4:12pm 9 10 mph 1005.8mb 78f
4:06pm 8 10 mph 1005.8mb 78f
4:00pm 9 10 mph 1006mb 78f
3:54pm 10 13 mph 1005.9mb 78f
3:48pm 11 15 mph 1005.9mb 78f
3:42pm 14 15 mph 1005.9mb 78f
3:36pm 15 16 mph 1005.8mb 78f
3:30pm 13
mph
1005.8mb 78f
3:24pm 11 14 mph 1005.8mb 78f
3:18pm 11 13 mph 1005.7mb 78f
3:12pm 11
mph
1005.8mb 78f
3:06pm 11 13 mph 1005.8mb 77f
3:00pm 10 13 mph 1005.8mb 78f
2:54pm 13 14 mph 1006.1mb 77f
2:48pm 13 14 mph 1006.2mb 77f
2:42pm 13 15 mph 1006.3mb 77f
2:36pm 14 15 mph 1006.4mb 77f
2:30pm 13 15 mph 1006.4mb 77f
2:24pm 13 15 mph 1006.4mb 77f
2:18pm 14 16 mph 1006.4mb 77f
2:12pm 14 15 mph 1006.4mb 77f
2:06pm 14 15 mph 1006.3mb 77f
2:00pm 14 15 mph 1006.5mb 77f
1:54pm 13 15 mph 1006.5mb 77f
1:48pm 15 16 mph 1006.4mb 77f
1:42pm 14 15 mph 1006.3mb 77f
1:36pm 14 16 mph 1006.3mb 76f
1:30pm 15 16 mph 1006.3mb 76f
1:24pm 14
mph
1006.5mb 76f
1:18pm 11 14 mph 1006.4mb 76f
1:12pm 11 13 mph 1006.4mb 76f
1:06pm 10 11 mph 1006.6mb 76f
1:00pm 9 13 mph 1006.6mb 75f
12:54pm 11 14 mph 1006.5mb 75f
12:48pm 13 14 mph 1006.5mb 75f
12:42pm 10 11 mph 1006.5mb 75f
12:36pm 9 10 mph 1006.6mb 75f
12:30pm 9 10 mph 1006.7mb 74f
12:24pm 9 10 mph 1006.6mb 74f
12:18pm 8 9 mph 1006.8mb 74f
12:12pm 7 9 mph 1006.9mb 74f
12:06pm 7 8 mph 1006.9mb 74f
12:00pm 7 8 mph 1007.1mb 74f
11:54am 7 8 mph 1007.1mb 74f
11:48am 6 7 mph 1006.9mb 75f
11:42am 7 8 mph 1007.1mb 75f
11:36am 2 6 mph 1007.3mb 75f
11:30am 5 8 mph 1007.3mb 74f
11:24am 8 10 mph 1007.3mb 74f
11:18am 7 10 mph 1007.4mb 74f
11:12am 9 14 mph 1007.6mb 74f
11:06am 14 16 mph 1007.8mb 73f
11:00am 11 23 mph 1008mb 73f
10:54am 24 28 mph 1008mb 73f
10:48am 16 17 mph 1008.1mb 73f
10:42am 11 20 mph 1008mb 73f
10:36am 17 20 mph 1007.9mb 73f
10:30am 16 18 mph 1007.9mb 73f
10:24am 14 15 mph 1007.9mb 73f
10:18am 14 15 mph 1007.8mb 73f
10:12am 11 18 mph 1007.7mb 73f
10:06am 14 17 mph 1007.6mb 73f
10:00am 13 15 mph 1007.7mb 74f
9:54am 14 18 mph 1007.5mb 78f
9:48am 15 18 mph 1007.5mb -
9:42am 16 20 mph 1007.3mb -
9:36am 15 17 mph 1007.2mb -
9:30am 14 17 mph 1007mb 77f
9:24am 14 18 mph 1007mb 77f
9:18am 15 17 mph 1007mb 76f
9:12am 14 16 mph 1006.8mb 76f
9:06am 13 17 mph 1006.7mb 76f
9:00am 17 21 mph 1006.9mb 76f
8:54am 15 18 mph 1006.8mb 76f
8:48am 16 22 mph 1006.7mb 76f
8:42am 16 22 mph 1006.7mb 76f
8:36am 16 23 mph 1006.5mb 76f
8:30am 20 23 mph 1006.4mb 76f
8:24am 20 23 mph 1006.1mb 76f
8:18am 21 24 mph 1006.1mb 76f
8:12am 21 25 mph 1006.1mb 76f
8:06am 16 21 mph 1006.1mb 76f
8:00am 17 22 mph 1006.1mb 76f
7:54am 16 21 mph 1006.3mb 76f
7:48am 14 18 mph 1006.3mb 76f
7:42am 16 21 mph 1006.2mb 76f
7:36am 14 20 mph 1006mb 76f
7:30am 16 20 mph 1005.8mb 76f
7:24am 17 22 mph 1005.5mb 76f
7:18am 17 21 mph 1005.1mb 76f
7:12am 20 24 mph 1004.8mb 76f
7:06am 18 23 mph 1004.7mb 76f
7:00am 22 25 mph 1004.5mb 76f
6:54am 20 25 mph 1004.4mb 76f
6:48am 20 24 mph 1004.3mb 76f
6:42am 20 25 mph 1004.3mb 76f
6:36am 21 24 mph 1004.1mb 76f
6:30am 21 24 mph 1004mb 76f
6:24am 21 24 mph 1004.1mb 76f
6:18am 22 26 mph 1003.9mb 76f
6:12am 22 25 mph 1003.9mb 76f
6:06am 21 24 mph 1004mb 76f
6:00am 21 25 mph 1003.9mb 76f
5:54am 21 24 mph 1004mb 75f
5:48am 21 25 mph 1003.9mb 76f
5:42am 21 25 mph 1003.9mb 76f
5:36am 21 24 mph 1003.8mb 76f
5:30am 22 26 mph 1003.8mb 76f
5:24am 23 26 mph 1004mb 76f
5:18am 20 25 mph 1004.2mb 76f
5:12am 23 28 mph 1004.1mb 76f
5:06am 24 26 mph 1004.2mb 76f
5:00am 22 26 mph 1004.4mb 76f
4:54am 21 24 mph 1004.5mb 76f
4:48am 21 29 mph 1004.7mb 76f
4:42am 21 24 mph 1004.6mb 76f
4:36am 22 29 mph 1004.8mb 76f
4:30am 23 28 mph 1004.6mb 76f
4:24am 24 30 mph 1004.6mb 76f
4:18am 24 29 mph 1004.4mb 76f
4:12am 24 29 mph 1004.3mb 76f
4:06am 24 30 mph 1004.2mb 76f
4:00am 25 30 mph 1004.3mb 76f
3:54am 26 31 mph 1004.2mb 76f
3:48am 24 29 mph 1004.3mb 76f
3:42am 24 32 mph 1004.3mb 76f
3:36am 24 30 mph 1004.4mb 76f
3:30am 24 28 mph 1004.4mb 76f
3:24am 24 29 mph 1004.3mb 76f
3:18am 28 31 mph 1004.2mb 76f
3:12am 24 31 mph 1004.2mb 76f
3:06am 26 31 mph 1004mb 76f
3:00am 26 31 mph 1004mb 76f
2:54am 31 36 mph 1003.8mb 76f
2:48am 28 34 mph 1003.7mb 76f
2:42am 28 34 mph 1003.8mb 76f
2:36am 29 36 mph 1003.8mb 76f
2:30am 30 36 mph 1003.9mb 76f
2:24am 29 37 mph 1004.1mb 76f
2:18am 31 37 mph 1004.1mb 76f
2:12am 30 33 mph 1004.2mb 76f
2:06am 30 33 mph 1004.3mb 76f
2:00am 26 31 mph 1004.7mb 76f
1:54am 26 31 mph 1005mb 76f
1:48am 26 30 mph 1005.1mb 76f
1:42am 25 29 mph 1005.2mb 76f
1:36am 25 29 mph 1005.3mb 76f
1:30am 25 29 mph 1005.3mb 76f
1:24am 25 31 mph 1005.2mb 76f
1:18am 25 30 mph 1005.4mb 76f
1:12am 28 31 mph 1005.4mb 76f
1:06am 24 28 mph 1005.6mb 76f
1:00am 25 28 mph 1005.7mb 76f
12:54am 24 28 mph 1005.9mb 76f
12:48am 25 29 mph 1006mb -
12:42am 23 28 mph 1006.1mb -
12:36am 23 28 mph 1006.2mb -
12:30am 22 26 mph 1006.2mb 76f
12:24am 24 29 mph 1006.1mb 76f
12:18am 25 29 mph 1005.9mb 76f
12:12am 24 32 mph 1005.8mb 76f
12:06am 25 31 mph 1005.6mb 76f
12:00am 24 31 mph 1005.7mb 76f
Fri 04/29 11:54pm 28 31 mph 1005.6mb 76f
11:48pm 25 31 mph 1005.7mb 76f
11:42pm 25 29 mph 1006mb 76f
11:36pm 23 31 mph 1006.2mb 76f
11:30pm 23 28 mph 1006.4mb 76f
11:24pm 24 29 mph 1006.5mb 76f
11:18pm 22 26 mph 1006.8mb 76f
11:12pm 22 28 mph 1006.9mb 76f
11:06pm 23 29 mph 1006.9mb 76f
11:00pm 24 28 mph 1006.9mb 76f
10:54pm 22 28 mph 1007.1mb 76f
10:48pm 23 28 mph 1007.1mb 76f
10:42pm 24 29 mph 1007.2mb 76f
10:36pm 23 26 mph 1007.1mb 76f
10:30pm 23 26 mph 1007.1mb 76f
10:24pm 22 25 mph 1007mb 76f
10:18pm 23 28 mph 1007.1mb 76f
10:12pm 23 29 mph 1007mb 76f
10:06pm 23 29 mph 1007mb 76f
10:00pm  -  mph - 77f
9:54pm  -  mph - 77f
9:48pm 24 28 mph 1006.9mb -
9:42pm 22 28 mph 1006.8mb -
9:36pm 21 26 mph 1006.9mb -
9:30pm 24 28 mph 1006.8mb -
9:24pm 22 25 mph 1006.5mb -
9:18pm 22 26 mph 1006.5mb 76f
9:12pm 24 29 mph 1006.6mb 76f
9:06pm 23 26 mph 1006.7mb 76f
9:00pm  -  mph 1006.5mb 76f
8:54pm  -  mph 1006.6mb 76f
8:48pm 22 24 mph 1006.7mb -
8:42pm 20 23 mph 1006.8mb -
8:36pm 21 23 mph 1006.9mb -
8:30pm 22 25 mph 1006.6mb -
8:24pm 21 24 mph 1006.7mb -
8:18pm 21 24 mph 1006.6mb 77f
8:12pm 21 23 mph 1006.5mb 77f
8:06pm 21 24 mph 1006.4mb 77f
8:00pm  -  mph 1006.2mb 77f
7:54pm  -  mph 1006.2mb 77f
7:48pm  -  mph 1006.2mb -
7:42pm  -  mph 1006.2mb -
7:36pm  -  mph 1006.2mb -
7:30pm  -  mph 1006.3mb -
7:24pm  -  mph 1006.5mb -
7:18pm  -  mph 1006.5mb 77f
7:12pm  -  mph 1006.2mb 77f
7:06pm  -  mph 1006.2mb 77f
7:00pm  -  mph 1006.2mb -
6:54pm  -  mph 1006.3mb -
6:48pm  -  mph 1006.2mb -
6:42pm  -  mph 1006.2mb -
6:36pm  -  mph 1006.2mb -
6:30pm 22 25 mph 1006.2mb 77f
6:24pm 20 25 mph 1006.4mb 77f
6:18pm  -  mph 1006.5mb 77f
6:12pm  -  mph 1006.5mb 77f
6:06pm  -  mph 1006.6mb 77f
6:00pm  -  mph 1006.6mb 77f
5:54pm  -  mph 1006.7mb 77f
5:48pm  -  mph 1006.6mb -
5:42pm  -  mph 1006.8mb -
5:36pm  -  mph 1006.8mb -
5:30pm 23 25 mph 1006.7mb -
5:24pm 21 25 mph 1006.8mb -
5:18pm 21 25 mph 1006.7mb 77f
5:12pm 21 24 mph 1006.6mb 77f
5:06pm 22 25 mph 1006.5mb 77f
5:00pm  -  mph 1006.6mb 77f
4:54pm  -  mph 1006.8mb 77f
4:48pm 22 28 mph 1006.8mb -
4:42pm 21 23 mph 1006.8mb -
4:36pm 21 25 mph 1006.9mb -
4:30pm 22 26 mph 1006.9mb 77f
4:24pm 21 25 mph 1007.1mb 77f
4:18pm 22 24 mph 1007.1mb 77f
4:12pm 20 24 mph 1007.2mb 77f
4:06pm 21 25 mph 1007.2mb 77f
4:00pm 20 26 mph 1007.5mb 77f
3:54pm 23 25 mph 1007.4mb 77f
3:48pm 22 25 mph 1007.3mb 77f
3:42pm 21 25 mph 1007.3mb 77f
3:36pm 22 26 mph 1007.2mb 77f
3:30pm 23 26 mph 1007.2mb 77f
3:24pm 23 26 mph 1007.2mb 77f
3:18pm 23 26 mph 1007.4mb 77f
3:12pm 23 28 mph 1007.5mb 77f
3:06pm 24 29 mph 1007.4mb 77f
3:00pm 26 30 mph 1007.5mb 77f
2:54pm 23 28 mph 1007.7mb 77f
2:48pm 23 26 mph 1007.8mb 77f
2:42pm 23 26 mph 1007.9mb 77f
2:36pm 23 28 mph 1007.9mb 77f
2:30pm 23 29 mph 1007.9mb 76f
2:24pm 25 29 mph 1007.9mb 76f
2:18pm 26 30 mph 1008mb 76f
2:12pm 24 28 mph 1008mb 76f
2:06pm 23 29 mph 1007.9mb 76f
2:00pm 25 30 mph 1007.9mb 76f
1:54pm 25 29 mph 1007.9mb 76f
1:48pm 24 28 mph 1008mb 76f
1:42pm 25 30 mph 1008mb 76f
1:36pm 25 29 mph 1008mb 76f
1:30pm 26 29 mph 1008.1mb 76f
1:24pm 24 30 mph 1008.2mb 76f
1:18pm 24 29 mph 1008.2mb 76f
1:12pm 24 31 mph 1008.2mb 76f
1:06pm 26 30 mph 1008.2mb 76f
1:00pm 26 30 mph 1008.3mb 76f
12:54pm 28 31 mph 1008.3mb 76f
12:48pm 26 29 mph 1008.4mb 76f
12:42pm 25 29 mph 1008.6mb 76f
12:36pm 26 30 mph 1008.8mb 76f
12:30pm 26 31 mph 1008.9mb 76f
12:24pm 25 29 mph 1009mb 76f
12:18pm 26 31 mph 1009mb 76f
12:12pm 25 30 mph 1009mb 76f
12:06pm 25 29 mph 1009.1mb 76f
12:00pm 25 31 mph 1009.2mb 76f
11:54am 25 31 mph 1009.2mb 76f
11:48am 24 30 mph 1009.3mb 76f
11:42am 26 30 mph 1009.3mb 76f
11:36am 25 31 mph 1009.3mb 76f
11:30am 24 31 mph 1009.3mb 76f
11:24am 25 34 mph 1009.2mb 76f
11:18am 28 33 mph 1009.2mb 76f
11:12am 28 31 mph 1009.3mb 76f
11:06am 29 34 mph 1009.3mb 76f
11:00am 25 32 mph 1009.3mb 76f
10:54am 26 30 mph 1009.4mb 76f
10:48am 28 31 mph 1009.3mb 76f
10:42am 26 32 mph 1009.4mb 76f
10:36am 26 31 mph 1009.5mb 76f
10:30am 26 31 mph 1009.4mb 76f
10:24am 26 33 mph 1009.4mb 76f
10:18am 29 32 mph 1009.3mb 76f
10:12am 23 31 mph 1009.4mb 76f
10:06am 30 34 mph 1009.3mb 76f
10:00am 28 33 mph 1009.2mb 76f
9:54am 28 32 mph 1009.3mb 76f
9:48am 26 31 mph 1009.5mb 76f
9:42am 25 31 mph 1009.6mb 76f
9:36am 25 30 mph 1009.7mb 76f
9:30am 25 30 mph 1009.7mb 76f
9:24am 25 28 mph 1009.7mb 76f
9:18am 26 30 mph 1009.7mb 76f
9:12am 25 30 mph 1009.7mb 76f
9:06am 24 28 mph 1009.7mb 76f
9:00am 22 26 mph 1009.7mb 76f
8:54am 23 26 mph 1009.7mb 76f
8:48am 22 25 mph 1009.7mb 75f
8:42am 23 26 mph 1009.8mb 76f
8:36am 23 26 mph 1009.7mb 75f
8:30am 24 25 mph 1009.8mb 75f
8:24am 22 24 mph 1009.9mb 76f
8:18am 22 25 mph 1009.9mb 75f
8:12am 23 25 mph 1009.9mb 75f
8:06am 20 25 mph 1009.9mb 75f
8:00am 22 25 mph 1009.9mb 75f
7:54am 22 24 mph 1009.8mb 75f
7:48am 22 24 mph 1009.7mb 75f
7:42am 22 24 mph 1009.8mb 75f
7:36am 21 23 mph 1009.7mb 75f
7:30am 21 24 mph 1009.7mb 75f
7:24am 18 23 mph 1009.6mb 75f
7:18am 18 22 mph 1009.6mb 75f
7:12am 21 23 mph 1009.5mb 75f
7:06am 21 23 mph 1009.5mb 75f
7:00am 21 25 mph 1009.5mb 75f
6:54am 18 24 mph 1009.5mb 75f
6:48am 20 23 mph 1009.6mb 75f
6:42am 20 23 mph 1009.6mb 75f
6:36am 18 23 mph 1009.7mb 75f
6:30am 18 22 mph 1009.7mb 75f
6:24am 20 22 mph 1009.7mb 75f
6:18am 21 23 mph 1009.7mb 75f
6:12am 17 22 mph 1009.6mb 75f
6:06am 21 23 mph 1009.6mb 75f
6:00am 18 24 mph 1009.6mb 75f
5:54am 21 26 mph 1009.5mb 75f
5:48am 21 23 mph 1009.5mb 75f
5:42am 21 24 mph 1009.5mb 75f
5:36am 22 25 mph 1009.5mb 75f
5:30am 21 23 mph 1009.4mb 75f
5:24am 20 24 mph 1009.4mb 75f
5:18am 22 26 mph 1009.3mb 75f
5:12am 20 23 mph 1009.3mb 75f
5:06am 17 24 mph 1009.3mb 75f
5:00am 21 26 mph 1009.3mb 75f
4:54am 22 25 mph 1009.2mb 75f
4:48am 21 23 mph 1009.2mb 75f
4:42am 21 25 mph 1009.1mb 75f
4:36am 20 24 mph 1009.1mb 75f
4:30am 21 24 mph 1009.2mb 75f
4:24am 21 25 mph 1009.2mb 75f
4:18am 22 25 mph 1009.1mb 75f
4:12am 23 26 mph 1009.1mb 76f
4:06am 24 28 mph 1009mb 76f
4:00am 23 29 mph 1009mb 76f
3:54am 25 28 mph 1009mb 76f
3:48am 23 28 mph 1009.1mb 76f
3:42am 22 28 mph 1009.1mb 76f
3:36am 26 29 mph 1009.2mb 76f
3:30am 23 28 mph 1009.3mb 76f
3:24am 23 26 mph 1009.4mb 76f
3:18am 22 28 mph 1009.4mb 76f
3:12am 22 25 mph 1009.5mb 76f
3:06am 21 24 mph 1009.6mb 76f
3:00am 17 23 mph 1009.7mb 76f
2:54am 17 22 mph 1009.8mb 76f
2:48am 18 23 mph 1009.9mb 76f
2:42am 21 24 mph 1009.9mb 76f
2:36am 18 23 mph 1009.9mb 76f
2:30am 18 21 mph 1009.9mb 76f
2:24am 17 22 mph 1010mb 76f
2:18am 20 23 mph 1009.9mb 76f
2:12am 18 23 mph 1009.9mb 76f
2:06am 20 24 mph 1009.9mb 76f
2:00am 20 23 mph 1010mb 76f
1:54am 21 24 mph 1009.9mb 76f
1:48am 21 23 mph 1010mb 76f
1:42am 22 23 mph 1010.2mb 76f
1:36am 21 25 mph 1010.3mb 76f
1:30am 22 24 mph 1010.4mb 76f
1:24am 22 25 mph 1010.5mb 76f
1:18am 21 24 mph 1010.6mb 76f
1:12am 23 25 mph 1010.6mb 76f
1:06am 21 24 mph 1010.7mb 76f
1:00am 21 23 mph 1010.9mb 76f
12:54am 22 24 mph 1010.9mb 76f
12:48am 20 23 mph 1010.9mb 76f
12:42am 22 24 mph 1011mb 76f
12:36am 22 24 mph 1011mb 76f
12:30am 21 25 mph 1011mb 76f
12:24am 21 23 mph 1011.1mb 76f
12:18am 20 22 mph 1011.1mb 76f
12:12am 21 24 mph 1011.1mb 76f
12:06am 18 24 mph 1011mb 76f
12:00am 20 24 mph 1010.9mb 76f
Thu 04/28 11:54pm 22 24 mph 1010.9mb 76f
11:48pm 22 26 mph 1010.8mb 76f
11:42pm 23 25 mph 1010.7mb 76f
11:36pm 21 25 mph 1010.9mb 76f
11:30pm 22 28 mph 1010.9mb 76f
11:24pm 24 28 mph 1010.9mb 76f
11:18pm 23 26 mph 1011mb 76f
11:12pm 22 25 mph 1011mb 76f
11:06pm 23 26 mph 1011.1mb 76f
11:00pm 23 26 mph 1011mb 76f
10:54pm 23 29 mph 1011mb 76f
10:48pm 24 28 mph 1011mb 76f
10:42pm 23 28 mph 1011.1mb 76f
10:36pm 23 29 mph 1011.2mb 76f
10:30pm 24 29 mph 1011.2mb 76f
10:24pm 22 28 mph 1011.2mb 76f
10:18pm 23 25 mph 1011.1mb 76f
10:12pm 21 24 mph 1011mb 76f
10:06pm 22 26 mph 1011mb 76f
10:00pm  -  mph 1011mb 76f
9:54pm  -  mph 1010.9mb 76f
9:48pm  -  mph 1010.9mb -
9:42pm  -  mph 1010.8mb -
9:36pm  -  mph 1010.8mb -
9:30pm  -  mph 1010.7mb -
9:24pm  -  mph 1010.6mb -
9:18pm 23 26 mph 1010.5mb 76f
9:12pm 23 28 mph 1010.4mb 76f
9:06pm 23 26 mph 1010.3mb 76f
9:00pm  -  mph 1010.3mb -
8:54pm  -  mph 1010.2mb -
8:48pm  -  mph 1010.3mb -
8:42pm  -  mph 1010.1mb -
8:36pm  -  mph 1010.1mb -
8:30pm 22 25 mph 1010.1mb 76f
8:24pm 22 26 mph 1010mb 76f
8:18pm  -  mph 1010mb 76f
8:12pm  -  mph 1009.9mb 76f
8:06pm  -  mph 1009.9mb 76f
8:00pm  -  mph 1010mb 76f
7:54pm  -  mph 1010mb 77f
7:48pm 20 22 mph 1010mb -
7:42pm 20 22 mph 1010mb -
7:36pm 18 22 mph 1010mb -
7:30pm  -  mph 1010mb -
7:24pm  -  mph 1010mb -
7:18pm 17 22 mph 1010mb 76f
7:12pm 18 22 mph 1010mb 76f
7:06pm 18 21 mph 1010mb 76f
7:00pm  -  mph 1010mb 76f
6:54pm  -  mph 1010.1mb 76f
6:48pm  -  mph 1010.1mb 77f
6:42pm  -  mph 1010.2mb 77f
6:36pm  -  mph 1010.2mb 77f
6:30pm  -  mph 1010.2mb -
6:24pm  -  mph 1010.3mb -
6:18pm  -  mph 1010.3mb -
6:12pm  -  mph 1010.3mb -
6:06pm  -  mph 1010.3mb -
6:00pm  -  mph 1010.2mb 77f
5:54pm  -  mph 1010.1mb 77f
5:48pm  -  mph 1010.1mb 77f
5:42pm  -  mph 1010.1mb 77f
5:36pm  -  mph 1010.1mb 77f
5:30pm  -  mph 1010.2mb 77f
5:24pm  -  mph 1010.2mb 77f
5:18pm 18 22 mph 1010.1mb 77f
5:12pm 18 21 mph 1010.1mb 77f
5:06pm 18 20 mph 1010.1mb 77f
5:00pm  -  mph 1010.1mb 77f
4:54pm  -  mph 1010.1mb 77f
4:48pm  -  mph 1010.1mb -
4:42pm  -  mph 1010.1mb -
4:36pm  -  mph 1010.2mb -
4:30pm 15 16 mph 1010.1mb 77f
4:24pm 15 16 mph 1010.1mb 77f
4:18pm 14 15 mph 1010.1mb 77f
4:12pm 14 16 mph 1010.2mb 77f
4:06pm 15 16 mph 1010.2mb 77f
4:00pm 15 16 mph 1010.2mb 77f
3:54pm 14 15 mph 1010.3mb 77f
3:48pm 13 15 mph 1010.4mb 77f
3:42pm 15 16 mph 1010.5mb 77f
3:36pm 13 15 mph 1010.6mb 77f
3:30pm 14 15 mph 1010.8mb 77f
3:24pm 13 15 mph 1010.8mb 77f
3:18pm 14 15 mph 1010.7mb 77f
3:12pm 14 15 mph 1010.8mb 77f
3:06pm 13 15 mph 1010.9mb 77f
3:00pm 14 16 mph 1011mb 77f
2:54pm 13 17 mph 1011.1mb 77f
2:48pm 15 16 mph 1011.2mb 77f
2:42pm 15 16 mph 1011.2mb 77f
2:36pm 15 16 mph 1011.2mb 77f
2:30pm 14 16 mph 1011.2mb 77f
2:24pm 15 16 mph 1011.3mb 77f
2:18pm 14 16 mph 1011.3mb 77f
2:12pm 15 16 mph 1011.3mb 77f
2:06pm 15 16 mph 1011.2mb 77f
2:00pm 15 16 mph 1011.2mb 77f
1:54pm 14 16 mph 1011.3mb 77f
1:48pm 14
mph
1011.3mb 77f
1:42pm 14 15 mph 1011.3mb 77f
1:36pm 15
mph
1011.3mb 77f
1:30pm 13 15 mph 1011.3mb 77f
1:24pm 13 15 mph 1011.3mb 77f
1:18pm 13 14 mph 1011.4mb 77f
1:12pm 10 13 mph 1011.4mb 77f
1:06pm 13 14 mph 1011.5mb 77f
1:00pm 10 14 mph 1011.5mb 77f
12:54pm 13 14 mph 1011.5mb 77f
12:48pm 11 13 mph 1011.5mb 76f
12:42pm 10 13 mph 1011.6mb 76f
12:36pm 11 14 mph 1011.6mb 76f
12:30pm 11 13 mph 1011.6mb 76f
12:24pm 13 14 mph 1011.7mb 76f
12:18pm 13 14 mph 1011.8mb 77f
12:12pm 13 14 mph 1011.8mb 76f
12:06pm 11 15 mph 1011.8mb 76f
12:00pm 14
mph
1011.9mb 77f
11:54am 11 14 mph 1011.9mb 76f
11:48am 11 14 mph 1012mb 76f
11:42am 11 13 mph 1012mb 76f
11:36am 10 13 mph 1012mb 76f
11:30am 10 13 mph 1012mb 76f
11:24am 11
mph
1012mb 76f
11:18am 10 11 mph 1012.1mb 76f
11:12am 10 11 mph 1012.1mb 76f
11:06am 11
mph
1012.1mb 76f
11:00am 10 14 mph 1012mb 76f
10:54am 11 13 mph 1012mb 76f
10:48am 10 13 mph 1012mb 76f
10:42am 11 13 mph 1011.9mb 76f
10:36am 10 11 mph 1011.8mb 76f
10:30am 9 10 mph 1011.8mb 76f
10:24am 9 11 mph 1011.7mb 76f
10:18am 9 11 mph 1011.7mb 76f
10:12am 10
mph
1011.7mb 76f
10:06am 9 10 mph 1011.7mb 76f
10:00am 9 10 mph 1011.6mb 76f